createdAt,value
2022-11-25T00:01:22.427Z,10.10
2022-11-25T00:03:50.090Z,10.10
2022-11-25T00:06:22.113Z,10.10
2022-11-25T00:08:51.366Z,10.10
2022-11-25T00:11:18.528Z,10.10
2022-11-25T00:13:46.513Z,10.10
2022-11-25T00:16:17.122Z,10.10
2022-11-25T00:18:54.104Z,10.20
2022-11-25T00:21:23.881Z,10.20
2022-11-25T00:23:58.441Z,10.20
2022-11-25T00:26:26.059Z,10.20
2022-11-25T00:28:53.644Z,10.20
2022-11-25T00:31:27.290Z,10.10
2022-11-25T00:33:54.642Z,10.20
2022-11-25T00:36:24.263Z,10.20
2022-11-25T00:39:02.469Z,10.20
2022-11-25T00:41:48.494Z,10.20
2022-11-25T00:44:37.448Z,10.20
2022-11-25T00:47:12.655Z,10.10
2022-11-25T00:49:41.463Z,10.10
2022-11-25T00:52:09.204Z,10.10
2022-11-25T00:54:36.304Z,10.10
2022-11-25T00:57:03.204Z,10.20
2022-11-25T00:59:29.903Z,10.10
2022-11-25T01:01:57.008Z,10.20
2022-11-25T01:04:23.933Z,10.20
2022-11-25T01:06:50.706Z,10.20
2022-11-25T01:09:17.518Z,10.20
2022-11-25T01:11:44.188Z,10.20
2022-11-25T01:14:11.593Z,10.20
2022-11-25T01:16:38.409Z,10.20
2022-11-25T01:19:05.368Z,10.20
2022-11-25T01:21:34.098Z,10.20
2022-11-25T01:24:02.273Z,10.20
2022-11-25T01:26:29.945Z,10.20
2022-11-25T01:28:59.361Z,10.20
2022-11-25T01:31:29.380Z,10.30
2022-11-25T01:33:58.985Z,10.30
2022-11-25T01:36:26.865Z,10.30
2022-11-25T01:38:59.199Z,10.30
2022-11-25T01:41:28.540Z,10.30
2022-11-25T01:44:43.218Z,10.30
2022-11-25T01:47:16.915Z,10.30
2022-11-25T01:49:49.245Z,10.30
2022-11-25T01:52:28.011Z,10.30
2022-11-25T01:55:06.167Z,10.30
2022-11-25T01:57:39.780Z,10.30
2022-11-25T02:00:08.277Z,10.30
2022-11-25T02:02:35.806Z,10.30
2022-11-25T02:05:07.881Z,10.30
2022-11-25T02:07:41.133Z,10.30
2022-11-25T02:10:11.620Z,10.30
2022-11-25T02:12:40.383Z,10.40
2022-11-25T02:15:08.130Z,10.40
2022-11-25T02:17:35.876Z,10.30
2022-11-25T02:20:09.871Z,10.40
2022-11-25T02:23:14.931Z,10.40
2022-11-25T02:25:43.511Z,10.40
2022-11-25T02:28:29.738Z,10.40
2022-11-25T02:30:57.360Z,10.40
2022-11-25T02:33:26.447Z,10.40
2022-11-25T02:35:58.408Z,10.50
2022-11-25T02:38:31.121Z,10.50
2022-11-25T02:40:57.809Z,10.50
2022-11-25T02:43:24.652Z,10.50
2022-11-25T02:45:58.087Z,10.50
2022-11-25T02:48:45.851Z,10.60
2022-11-25T02:51:15.810Z,10.60
2022-11-25T02:53:43.106Z,10.60
2022-11-25T02:56:10.169Z,10.60
2022-11-25T02:58:36.853Z,10.60
2022-11-25T03:01:03.625Z,10.60
2022-11-25T03:03:30.477Z,10.60
2022-11-25T03:05:57.242Z,10.60
2022-11-25T03:08:24.072Z,10.60
2022-11-25T03:10:50.723Z,10.60
2022-11-25T03:13:18.870Z,10.70
2022-11-25T03:15:45.585Z,10.70
2022-11-25T03:18:12.437Z,10.70
2022-11-25T03:20:39.247Z,10.70
2022-11-25T03:23:06.670Z,10.70
2022-11-25T03:25:34.796Z,10.70
2022-11-25T03:28:01.713Z,10.70
2022-11-25T03:30:29.845Z,10.70
2022-11-25T03:32:56.659Z,10.70
2022-11-25T03:35:23.501Z,10.70
2022-11-25T03:37:50.344Z,10.70
2022-11-25T03:40:17.248Z,10.70
2022-11-25T03:42:45.345Z,10.70
2022-11-25T03:45:13.620Z,10.70
2022-11-25T03:47:42.380Z,10.70
2022-11-25T03:50:10.379Z,10.70
2022-11-25T03:52:37.104Z,10.70
2022-11-25T03:55:04.431Z,10.60
2022-11-25T03:57:31.106Z,10.70
2022-11-25T03:59:57.769Z,10.60
2022-11-25T04:02:24.525Z,10.60
2022-11-25T04:04:51.288Z,10.60
2022-11-25T04:07:18.019Z,10.60
2022-11-25T04:09:45.914Z,10.60
2022-11-25T04:12:31.217Z,10.60
2022-11-25T04:14:57.892Z,10.60
2022-11-25T04:17:24.576Z,10.60
2022-11-25T04:19:51.326Z,10.60
2022-11-25T04:22:21.024Z,10.60
2022-11-25T04:24:50.502Z,10.50
2022-11-25T04:27:20.614Z,10.50
2022-11-25T04:29:50.483Z,10.50
2022-11-25T04:32:20.029Z,10.50
2022-11-25T04:34:46.687Z,10.50
2022-11-25T04:37:13.402Z,10.50
2022-11-25T04:39:40.093Z,10.40
2022-11-25T04:42:25.352Z,10.40
2022-11-25T04:45:07.576Z,10.40
2022-11-25T04:47:39.338Z,10.40
2022-11-25T04:50:09.233Z,10.30
2022-11-25T04:52:36.009Z,10.30
2022-11-25T04:55:02.759Z,10.30
2022-11-25T04:57:29.482Z,10.30
2022-11-25T04:59:56.215Z,10.20
2022-11-25T05:02:25.571Z,10.20
2022-11-25T05:04:54.889Z,10.20
2022-11-25T05:07:24.599Z,10.20
2022-11-25T05:09:51.737Z,10.10
2022-11-25T05:12:22.341Z,10.10
2022-11-25T05:14:49.725Z,10.10
2022-11-25T05:17:19.102Z,10.10
2022-11-25T05:19:46.188Z,10.00
2022-11-25T05:22:18.195Z,10.00
2022-11-25T05:24:46.098Z,10.00
2022-11-25T05:27:12.854Z,9.90
2022-11-25T05:29:39.696Z,9.90
2022-11-25T05:32:07.271Z,9.80
2022-11-25T05:34:35.137Z,9.80
2022-11-25T05:37:02.280Z,9.80
2022-11-25T05:39:29.220Z,9.70
2022-11-25T05:41:56.149Z,9.70
2022-11-25T05:44:23.436Z,9.70
2022-11-25T05:46:50.641Z,9.70
2022-11-25T05:49:18.668Z,9.60
2022-11-25T05:51:45.989Z,9.60
2022-11-25T05:54:13.196Z,9.60
2022-11-25T05:56:40.180Z,9.60
2022-11-25T05:59:07.306Z,9.50
2022-11-25T06:01:34.307Z,9.50
2022-11-25T06:04:02.203Z,9.50
2022-11-25T06:06:29.205Z,9.50
2022-11-25T06:08:56.328Z,9.50
2022-11-25T06:11:25.461Z,9.50
2022-11-25T06:13:52.270Z,9.40
2022-11-25T06:16:21.889Z,9.40
2022-11-25T06:18:49.362Z,9.40
2022-11-25T06:21:16.384Z,9.40
2022-11-25T06:23:45.452Z,9.40
2022-11-25T06:26:23.091Z,9.40
2022-11-25T06:28:53.956Z,9.40
2022-11-25T06:31:23.501Z,9.40
2022-11-25T06:33:52.000Z,9.40
2022-11-25T06:36:20.001Z,9.30
2022-11-25T06:38:49.102Z,9.30
2022-11-25T06:41:16.604Z,9.30
2022-11-25T06:43:43.504Z,9.30
2022-11-25T06:46:19.796Z,9.30
2022-11-25T06:48:48.259Z,9.30
2022-11-25T06:51:16.454Z,9.30
2022-11-25T06:53:43.588Z,9.20
2022-11-25T06:56:14.924Z,9.30
2022-11-25T06:58:42.508Z,9.20
2022-11-25T07:01:18.360Z,9.20
2022-11-25T07:03:48.198Z,9.20
2022-11-25T07:06:17.345Z,9.20
2022-11-25T07:08:44.973Z,9.20
2022-11-25T07:11:21.003Z,9.10
2022-11-25T07:13:48.110Z,9.10
2022-11-25T07:16:15.233Z,9.10
2022-11-25T07:18:42.231Z,9.10
2022-11-25T07:21:11.694Z,9.10
2022-11-25T07:23:39.465Z,9.10
2022-11-25T07:26:12.664Z,9.00
2022-11-25T07:28:40.111Z,9.00
2022-11-25T07:31:27.575Z,9.00
2022-11-25T07:34:01.693Z,9.00
2022-11-25T07:36:29.738Z,9.00
2022-11-25T07:38:58.740Z,9.00
2022-11-25T07:41:27.570Z,9.00
2022-11-25T07:43:57.199Z,9.00
2022-11-25T07:46:32.547Z,8.90
2022-11-25T07:49:02.069Z,9.00
2022-11-25T07:51:33.128Z,8.90
2022-11-25T07:54:01.344Z,8.90
2022-11-25T07:56:29.296Z,8.90
2022-11-25T07:58:57.098Z,8.90
2022-11-25T08:01:24.484Z,8.90
2022-11-25T08:03:52.089Z,8.90
2022-11-25T08:06:21.708Z,8.90
2022-11-25T08:08:49.697Z,8.90
2022-11-25T08:11:25.734Z,8.90
2022-11-25T08:13:52.785Z,8.90
2022-11-25T08:16:22.351Z,8.90
2022-11-25T08:18:50.675Z,8.90
2022-11-25T08:21:18.587Z,8.90
2022-11-25T08:23:48.766Z,9.00
2022-11-25T08:26:20.599Z,8.90
2022-11-25T08:28:47.952Z,9.00
2022-11-25T08:31:18.747Z,9.00
2022-11-25T08:33:46.226Z,9.00
2022-11-25T08:36:13.573Z,9.00
2022-11-25T08:38:42.110Z,9.10
2022-11-25T08:41:13.974Z,9.10
2022-11-25T08:43:41.047Z,9.20
2022-11-25T08:46:10.349Z,9.20
2022-11-25T08:48:37.403Z,9.20
2022-11-25T08:51:11.951Z,9.20
2022-11-25T08:53:39.922Z,9.30
2022-11-25T08:56:07.566Z,9.30
2022-11-25T08:58:35.423Z,9.30
2022-11-25T09:01:02.805Z,9.30
2022-11-25T09:03:33.840Z,9.40
2022-11-25T09:06:01.205Z,9.40
2022-11-25T09:08:28.728Z,9.40
2022-11-25T09:10:55.452Z,9.40
2022-11-25T09:13:22.256Z,9.40
2022-11-25T09:15:52.489Z,9.50
2022-11-25T09:18:25.623Z,9.50
2022-11-25T09:20:53.768Z,9.50
2022-11-25T09:23:23.307Z,9.60
2022-11-25T09:25:57.580Z,9.60
2022-11-25T09:28:26.130Z,9.70
2022-11-25T09:30:53.191Z,9.70
2022-11-25T09:33:20.333Z,9.70
2022-11-25T09:35:47.472Z,9.70
2022-11-25T09:38:14.435Z,9.80
2022-11-25T09:41:05.546Z,9.80
2022-11-25T09:44:02.325Z,9.90
2022-11-25T09:46:47.029Z,9.90
2022-11-25T09:49:19.326Z,9.90
2022-11-25T09:51:45.935Z,9.90
2022-11-25T09:54:21.658Z,10.00
2022-11-25T09:56:55.859Z,10.00
2022-11-25T09:59:47.610Z,10.00
2022-11-25T10:02:27.856Z,10.10
2022-11-25T10:05:05.775Z,10.10
2022-11-25T10:07:42.126Z,10.10
2022-11-25T10:10:22.265Z,10.20
2022-11-25T10:12:53.372Z,10.20
2022-11-25T10:15:30.139Z,10.20
2022-11-25T10:18:03.187Z,10.30
2022-11-25T10:20:34.162Z,10.30
2022-11-25T10:23:04.401Z,10.40
2022-11-25T10:25:38.886Z,10.40
2022-11-25T10:28:21.114Z,10.40
2022-11-25T10:31:06.683Z,10.50
2022-11-25T10:33:46.728Z,10.50
2022-11-25T10:36:38.581Z,10.50
2022-11-25T10:39:22.212Z,10.60
2022-11-25T10:42:20.829Z,10.60
2022-11-25T10:44:47.587Z,10.70
2022-11-25T10:47:35.258Z,10.70
2022-11-25T10:50:26.797Z,10.80
2022-11-25T10:52:56.562Z,10.80
2022-11-25T10:55:26.607Z,10.90
2022-11-25T10:57:54.365Z,10.90
2022-11-25T11:00:29.492Z,10.90
2022-11-25T11:02:57.487Z,11.00
2022-11-25T11:05:29.637Z,11.10
2022-11-25T11:08:37.242Z,11.10
2022-11-25T11:11:17.826Z,11.20
2022-11-25T11:13:45.274Z,11.20
2022-11-25T11:16:39.190Z,11.30
2022-11-25T11:19:06.330Z,11.30
2022-11-25T11:21:35.609Z,11.40
2022-11-25T11:24:04.193Z,11.40
2022-11-25T11:26:35.747Z,11.40
2022-11-25T11:29:21.180Z,11.50
2022-11-25T11:31:57.810Z,11.50
2022-11-25T11:34:50.574Z,11.60
2022-11-25T11:37:42.535Z,11.60
2022-11-25T11:40:09.233Z,11.60
2022-11-25T11:43:07.793Z,11.70
2022-11-25T11:45:48.221Z,11.70
2022-11-25T11:48:24.622Z,11.70
2022-11-25T11:50:59.605Z,11.80
2022-11-25T11:53:41.192Z,11.80
2022-11-25T11:56:34.724Z,11.80
2022-11-25T11:59:33.709Z,11.90
2022-11-25T12:02:24.529Z,11.90
2022-11-25T12:05:10.092Z,12.00
2022-11-25T12:08:00.724Z,12.00
2022-11-25T12:10:33.144Z,12.10
2022-11-25T12:13:15.104Z,12.10
2022-11-25T12:15:57.659Z,12.10
2022-11-25T12:18:52.726Z,12.10
2022-11-25T12:21:52.747Z,12.20
2022-11-25T12:24:37.917Z,12.20
2022-11-25T12:27:17.725Z,12.20
2022-11-25T12:30:05.575Z,12.20
2022-11-25T12:32:38.104Z,12.20
2022-11-25T12:35:10.761Z,12.30
2022-11-25T12:37:43.616Z,12.30
2022-11-25T12:40:29.691Z,12.30
2022-11-25T12:43:20.596Z,12.30
2022-11-25T12:45:58.523Z,12.30
2022-11-25T12:48:25.297Z,12.40
2022-11-25T12:51:26.859Z,12.40
2022-11-25T12:54:22.270Z,12.40
2022-11-25T12:57:27.145Z,12.50
2022-11-25T13:03:36.412Z,12.60
2022-11-25T13:06:21.229Z,12.60
2022-11-25T13:08:54.084Z,12.60
2022-11-25T13:11:38.998Z,12.70
2022-11-25T13:14:27.234Z,12.70
2022-11-25T13:16:57.440Z,12.70
2022-11-25T13:19:24.556Z,12.70
2022-11-25T13:22:29.923Z,12.80
2022-11-25T13:24:58.520Z,12.80
2022-11-25T13:27:40.077Z,12.80
2022-11-25T13:30:32.685Z,12.90
2022-11-25T13:33:22.281Z,12.80
2022-11-25T13:35:55.995Z,12.90
2022-11-25T13:39:01.908Z,12.80
2022-11-25T13:41:45.317Z,12.80
2022-11-25T13:44:24.023Z,12.80
2022-11-25T13:46:53.560Z,12.80
2022-11-25T13:49:50.241Z,12.80
2022-11-25T13:52:37.973Z,12.80
2022-11-25T13:55:29.451Z,12.80
2022-11-25T13:58:11.277Z,12.80
2022-11-25T14:00:41.034Z,12.80
2022-11-25T14:03:19.818Z,12.70
2022-11-25T14:06:27.442Z,12.70
2022-11-25T14:09:13.785Z,12.80
2022-11-25T14:11:52.422Z,12.80
2022-11-25T14:14:31.097Z,12.80
2022-11-25T14:17:11.034Z,12.80
2022-11-25T14:20:04.704Z,12.70
2022-11-25T14:22:37.600Z,12.70
2022-11-25T14:25:34.875Z,12.70
2022-11-25T14:28:27.039Z,12.70
2022-11-25T14:31:00.853Z,12.70
2022-11-25T14:33:35.196Z,12.70
2022-11-25T14:36:09.244Z,12.70
2022-11-25T14:38:52.711Z,12.70
2022-11-25T14:41:25.523Z,12.70
2022-11-25T14:44:06.969Z,12.70
2022-11-25T14:46:33.646Z,12.80
2022-11-25T14:49:03.295Z,12.80
2022-11-25T14:51:37.769Z,12.80
2022-11-25T14:54:08.875Z,12.80
2022-11-25T14:56:37.403Z,12.80
2022-11-25T14:59:04.250Z,12.80
2022-11-25T15:01:33.784Z,12.80
2022-11-25T15:04:12.174Z,12.80
2022-11-25T15:06:47.789Z,12.70
2022-11-25T15:09:24.388Z,12.70
2022-11-25T15:11:57.452Z,12.70
2022-11-25T15:14:30.068Z,12.60
2022-11-25T15:16:58.179Z,12.60
2022-11-25T15:19:33.312Z,12.60
2022-11-25T15:24:55.973Z,12.40
2022-11-25T15:27:28.441Z,12.40
2022-11-25T15:29:57.196Z,12.40
2022-11-25T15:32:33.842Z,12.30
2022-11-25T15:35:02.501Z,12.20
2022-11-25T15:37:29.540Z,12.20
2022-11-25T15:40:29.835Z,12.20
2022-11-25T15:43:05.876Z,12.10
2022-11-25T15:45:44.104Z,12.10
2022-11-25T15:48:42.266Z,12.00
2022-11-25T15:51:33.862Z,12.00
2022-11-25T15:54:12.851Z,11.90
2022-11-25T15:56:44.396Z,11.90
2022-11-25T15:59:41.071Z,11.80
2022-11-25T16:02:32.612Z,11.80
2022-11-25T16:05:14.668Z,11.80
2022-11-25T16:07:58.055Z,11.80
2022-11-25T16:10:34.862Z,11.70
2022-11-25T16:13:30.628Z,11.60
2022-11-25T16:16:31.074Z,11.60
2022-11-25T16:19:10.040Z,11.60
2022-11-25T16:21:36.781Z,11.50
2022-11-25T16:24:06.429Z,11.40
2022-11-25T16:26:39.098Z,11.40
2022-11-25T16:29:16.676Z,11.40
2022-11-25T16:31:43.508Z,11.30
2022-11-25T16:34:15.370Z,11.20
2022-11-25T16:36:42.517Z,11.10
2022-11-25T16:39:09.696Z,11.10
2022-11-25T16:41:37.160Z,11.00
2022-11-25T16:44:21.224Z,10.90
2022-11-25T16:46:48.068Z,10.90
2022-11-25T16:49:16.416Z,10.80
2022-11-25T16:51:43.559Z,10.70
2022-11-25T16:54:10.735Z,10.70
2022-11-25T16:56:40.381Z,10.60
2022-11-25T16:59:14.735Z,10.50
2022-11-25T17:01:46.427Z,10.40
2022-11-25T17:04:14.243Z,10.40
2022-11-25T17:06:42.217Z,10.30
2022-11-25T17:09:09.234Z,10.30
2022-11-25T17:11:46.117Z,10.20
2022-11-25T17:14:27.688Z,10.10
2022-11-25T17:16:55.020Z,10.00
2022-11-25T17:19:21.814Z,10.00
2022-11-25T17:21:48.690Z,9.90
2022-11-25T17:24:20.959Z,9.80
2022-11-25T17:26:57.304Z,9.80
2022-11-25T17:29:34.005Z,9.70
2022-11-25T17:32:01.512Z,9.60
2022-11-25T17:34:28.254Z,9.60
2022-11-25T17:36:56.942Z,9.50
2022-11-25T17:39:23.726Z,9.50
2022-11-25T17:41:51.498Z,9.40
2022-11-25T17:44:29.361Z,9.40
2022-11-25T17:46:57.937Z,9.30
2022-11-25T17:49:27.364Z,9.30
2022-11-25T17:51:56.922Z,9.20
2022-11-25T17:54:26.392Z,9.10
2022-11-25T17:56:55.876Z,9.10
2022-11-25T17:59:31.750Z,9.00
2022-11-25T18:02:01.490Z,9.00
2022-11-25T18:04:34.174Z,8.90
2022-11-25T18:07:01.654Z,8.90
2022-11-25T18:09:28.368Z,8.80
2022-11-25T18:11:59.026Z,8.80
2022-11-25T18:14:30.169Z,8.70
2022-11-25T18:17:00.930Z,8.70
2022-11-25T18:19:27.938Z,8.60
2022-11-25T18:22:00.305Z,8.60
2022-11-25T18:24:27.099Z,8.50
2022-11-25T18:26:53.853Z,8.50
2022-11-25T18:29:25.691Z,8.40
2022-11-25T18:31:56.540Z,8.40
2022-11-25T18:34:24.306Z,8.30
2022-11-25T18:36:51.576Z,8.30
2022-11-25T18:39:19.046Z,8.20
2022-11-25T18:41:47.009Z,8.20
2022-11-25T18:44:37.300Z,8.10
2022-11-25T18:47:05.467Z,8.10
2022-11-25T18:49:32.209Z,8.00
2022-11-25T18:51:58.923Z,8.00
2022-11-25T18:54:25.590Z,7.90
2022-11-25T18:56:52.841Z,7.90
2022-11-25T18:59:26.939Z,7.80
2022-11-25T19:01:54.584Z,7.80
2022-11-25T19:04:22.235Z,7.80
2022-11-25T19:06:48.879Z,7.70
2022-11-25T19:09:15.553Z,7.70
2022-11-25T19:11:46.198Z,7.60
2022-11-25T19:14:32.183Z,7.60
2022-11-25T19:17:16.725Z,7.60
2022-11-25T19:19:46.233Z,7.50
2022-11-25T19:22:15.328Z,7.50
2022-11-25T19:24:42.541Z,7.40
2022-11-25T19:27:19.291Z,7.40
2022-11-25T19:29:47.456Z,7.40
2022-11-25T19:32:22.965Z,7.30
2022-11-25T19:34:54.703Z,7.30
2022-11-25T19:37:22.779Z,7.30
2022-11-25T19:39:53.320Z,7.20
2022-11-25T19:42:20.150Z,7.20
2022-11-25T19:44:46.916Z,7.20
2022-11-25T19:47:26.698Z,7.10
2022-11-25T19:49:56.216Z,7.10
2022-11-25T19:52:42.561Z,7.00
2022-11-25T19:55:18.719Z,7.00
2022-11-25T19:57:45.977Z,7.00
2022-11-25T20:00:14.735Z,6.90
2022-11-25T20:02:43.034Z,6.90
2022-11-25T20:05:10.477Z,6.80
2022-11-25T20:07:44.912Z,6.80
2022-11-25T20:10:25.658Z,6.80
2022-11-25T20:12:53.656Z,6.80
2022-11-25T20:15:20.932Z,6.70
2022-11-25T20:17:53.601Z,6.70
2022-11-25T20:20:28.338Z,6.70
2022-11-25T20:23:00.958Z,6.70
2022-11-25T20:25:28.493Z,6.60
2022-11-25T20:27:58.114Z,6.60
2022-11-25T20:30:28.986Z,6.60
2022-11-25T20:32:55.893Z,6.50
2022-11-25T20:35:26.300Z,6.50
2022-11-25T20:37:58.065Z,6.50
2022-11-25T20:40:43.249Z,6.40
2022-11-25T20:43:34.340Z,6.40
2022-11-25T20:46:02.650Z,6.40
2022-11-25T20:48:30.088Z,6.40
2022-11-25T20:51:01.449Z,6.30
2022-11-25T20:53:31.868Z,6.30
2022-11-25T20:55:58.481Z,6.30
2022-11-25T20:58:31.761Z,6.20
2022-11-25T21:00:59.456Z,6.20
2022-11-25T21:03:26.769Z,6.20
2022-11-25T21:05:55.079Z,6.20
2022-11-25T21:08:24.259Z,6.10
2022-11-25T21:10:53.934Z,6.10
2022-11-25T21:13:26.537Z,6.20
2022-11-25T21:15:53.975Z,6.10
2022-11-25T21:18:21.729Z,6.10
2022-11-25T21:20:55.632Z,6.10
2022-11-25T21:23:30.416Z,6.10
2022-11-25T21:26:13.728Z,6.00
2022-11-25T21:28:43.484Z,6.00
2022-11-25T21:31:16.709Z,6.00
2022-11-25T21:33:47.261Z,6.00
2022-11-25T21:36:23.390Z,6.00
2022-11-25T21:38:55.217Z,6.00
2022-11-25T21:41:22.035Z,6.00
2022-11-25T21:43:50.826Z,6.00
2022-11-25T21:46:20.316Z,6.00
2022-11-25T21:48:47.683Z,6.00
2022-11-25T21:51:21.564Z,6.00
2022-11-25T21:53:50.761Z,6.00
2022-11-25T21:56:33.918Z,6.00
2022-11-25T21:59:02.601Z,6.00
2022-11-25T22:01:29.875Z,5.90
2022-11-25T22:03:56.715Z,5.90
2022-11-25T22:06:29.194Z,5.90
2022-11-25T22:08:56.788Z,5.90
2022-11-25T22:11:35.926Z,5.90
2022-11-25T22:14:27.544Z,5.90
2022-11-25T22:16:55.979Z,5.90
2022-11-25T22:19:25.206Z,5.90
2022-11-25T22:21:51.872Z,5.80
2022-11-25T22:24:19.648Z,5.80
2022-11-25T22:26:48.299Z,5.80
2022-11-25T22:29:20.018Z,5.80
2022-11-25T22:31:48.442Z,5.80
2022-11-25T22:34:25.013Z,5.70
2022-11-25T22:36:52.328Z,5.70
2022-11-25T22:39:22.123Z,5.70
2022-11-25T22:41:55.274Z,5.70
2022-11-25T22:44:37.932Z,5.70
2022-11-25T22:47:06.074Z,5.70
2022-11-25T22:49:40.416Z,5.60
2022-11-25T22:52:21.627Z,5.60
2022-11-25T22:54:49.273Z,5.60
2022-11-25T22:57:16.957Z,5.60
2022-11-25T22:59:44.852Z,5.60
2022-11-25T23:02:34.136Z,5.60
2022-11-25T23:05:01.055Z,5.50
2022-11-25T23:07:28.372Z,5.50
2022-11-25T23:09:56.611Z,5.50
2022-11-25T23:12:23.285Z,5.50
2022-11-25T23:14:50.193Z,5.40
2022-11-25T23:17:21.889Z,5.40
2022-11-25T23:19:50.237Z,5.40
2022-11-25T23:22:17.370Z,5.40
2022-11-25T23:24:47.281Z,5.40
2022-11-25T23:27:16.054Z,5.40
2022-11-25T23:29:42.761Z,5.30
2022-11-25T23:32:18.588Z,5.30
2022-11-25T23:34:45.687Z,5.30
2022-11-25T23:37:13.797Z,5.30
2022-11-25T23:39:40.744Z,5.20
2022-11-25T23:42:19.467Z,5.20
2022-11-25T23:44:46.213Z,5.20
2022-11-25T23:47:20.666Z,5.20
2022-11-25T23:49:51.186Z,5.20
2022-11-25T23:52:23.612Z,5.10
2022-11-25T23:54:52.151Z,5.10
2022-11-25T23:57:25.760Z,5.10
2022-11-25T23:59:53.202Z,5.10
